Hatfield, Missouri
Current Conditions -  °F | °C
As of 2:53 AM on Thursday 27 Nov 2014 (Local Time) from KLWD Reporting Station
Overcast Overcast  
Wind Chill: 12°   Ceiling: 1200
Heat Index: 23°   Visibility: 10mi
Dew Point: 19°   Wind: 12mph
Humidity: 85%   Direction: 340°NNW
Pressure: 30.43"   Gusts: NA
Location:  40.53°N, 94.15°W
Report Text: KLWD 270853Z AUTO 34010KT 10SM OVC012 M05/M07 A3043 RMK AO2 SLP320 T10501072 51018
Loading
Personal Weather Stations






























Interactive Weather Map New forecast layout! Learn more

10-Day Weather Forecast

Advertisements
Track Severe Weather on mobile